Time;durP1;ratioP1;P1;durP2;ratioP2;P2;SDS_P1;SDS_P2;PMS_P1;PMS_P2;Temp;Humidity;BMP_temperature;BMP_pressure;BME280_temperature;BME280_humidity;BME280_pressure;Samples;Min_cycle;Max_cycle;Signal;HPM_P1;HPM_P2
2022/12/20 00:01:51;;;;;;;2.10;1.50;;;12.30;94.10;;;;;;4996145;28;20494;-79
2022/12/20 00:04:18;;;;;;;1.80;1.50;;;12.30;94.10;;;;;;4977802;28;20485;-79
2022/12/20 00:06:45;;;;;;;1.70;1.60;;;12.30;93.90;;;;;;4977860;28;20457;-78
2022/12/20 00:09:13;;;;;;;4.13;1.70;;;12.30;93.70;;;;;;4996720;28;20452;-78
2022/12/20 00:11:41;;;;;;;5.30;1.63;;;12.40;93.50;;;;;;4997766;28;20459;-79
2022/12/20 00:14:08;;;;;;;5.07;1.90;;;12.40;93.40;;;;;;4997726;28;20476;-78
2022/12/20 00:16:36;;;;;;;2.20;1.43;;;12.30;93.40;;;;;;4998211;28;20462;-78
2022/12/20 00:19:05;;;;;;;2.10;1.70;;;12.30;93.30;;;;;;4997441;28;20436;-79
2022/12/20 00:21:33;;;;;;;4.53;2.27;;;12.30;93.50;;;;;;4997533;28;20838;-79
2022/12/20 00:24:01;;;;;;;6.60;1.37;;;12.30;93.80;;;;;;4996912;28;20476;-79
2022/12/20 00:26:30;;;;;;;4.93;2.27;;;12.30;93.90;;;;;;4996812;28;20441;-79
2022/12/20 00:28:58;;;;;;;3.33;1.80;;;12.30;93.90;;;;;;4997250;28;20445;-78
2022/12/20 00:31:26;;;;;;;3.23;1.40;;;12.20;93.80;;;;;;4997290;28;20887;-78
2022/12/20 00:33:55;;;;;;;5.73;2.03;;;12.20;93.80;;;;;;4996877;28;20983;-79
2022/12/20 00:36:23;;;;;;;4.80;1.50;;;12.20;94.00;;;;;;4997146;28;20440;-79
2022/12/20 00:38:51;;;;;;;3.07;1.83;;;12.20;94.00;;;;;;4997142;28;20461;-78
2022/12/20 00:41:20;;;;;;;4.53;1.63;;;12.20;93.90;;;;;;4997716;28;20495;-79
2022/12/20 00:43:49;;;;;;;9.70;1.90;;;12.20;94.00;;;;;;4996360;28;20491;-79
2022/12/20 00:46:17;;;;;;;2.43;1.20;;;12.10;94.00;;;;;;4991772;28;20463;-78
2022/12/20 00:48:44;;;;;;;4.80;2.20;;;12.10;94.00;;;;;;4997618;28;20453;-79
2022/12/20 00:51:13;;;;;;;2.70;1.20;;;12.10;94.00;;;;;;4998055;28;20474;-78
2022/12/20 00:53:40;;;;;;;3.37;1.57;;;12.10;94.00;;;;;;4999461;28;20444;-78
2022/12/20 00:56:08;;;;;;;1.83;1.40;;;12.10;94.00;;;;;;4998070;28;20468;-79
2022/12/20 00:58:39;;;;;;;4.90;1.53;;;12.10;93.90;;;;;;4996444;28;20470;-78
2022/12/20 01:01:18;;;;;;;5.70;1.50;;;12.10;93.90;;;;;;4996155;28;21105;-78
2022/12/20 01:03:45;;;;;;;3.30;1.90;;;12.10;93.80;;;;;;4997162;28;20471;-78
2022/12/20 01:06:12;;;;;;;3.03;1.30;;;12.10;93.80;;;;;;4997266;28;20983;-78
2022/12/20 01:08:39;;;;;;;2.37;1.47;;;12.10;93.80;;;;;;4998228;28;20455;-78
2022/12/20 01:11:08;;;;;;;3.20;2.30;;;12.20;93.80;;;;;;4994076;28;20463;-78
2022/12/20 01:13:36;;;;;;;2.77;1.87;;;12.20;93.80;;;;;;4998539;28;20444;-79
2022/12/20 01:16:05;;;;;;;3.87;1.60;;;12.20;93.70;;;;;;4996417;28;20464;-78
2022/12/20 01:18:33;;;;;;;3.43;1.93;;;12.20;93.60;;;;;;4998683;28;20454;-79
2022/12/20 01:21:04;;;;;;;8.13;2.57;;;12.20;93.70;;;;;;4996434;28;20464;-78
2022/12/20 01:23:31;;;;;;;2.87;1.77;;;12.20;93.60;;;;;;4995529;28;20471;-78
2022/12/20 01:25:59;;;;;;;3.00;1.50;;;12.20;93.60;;;;;;4997621;28;20495;-78
2022/12/20 01:28:26;;;;;;;4.03;1.83;;;12.20;93.50;;;;;;4998737;28;20464;-78
2022/12/20 01:30:53;;;;;;;5.23;2.23;;;12.20;93.60;;;;;;4995459;28;21008;-78
2022/12/20 01:33:20;;;;;;;3.43;1.80;;;12.30;93.60;;;;;;4990629;28;20983;-79
2022/12/20 01:35:56;;;;;;;5.50;1.70;;;12.30;93.90;;;;;;4995958;28;20491;-79
2022/12/20 01:38:24;;;;;;;4.33;1.60;;;12.30;93.60;;;;;;4996058;28;20839;-79
2022/12/20 01:40:51;;;;;;;3.10;2.00;;;12.30;93.80;;;;;;4994979;28;20470;-79
2022/12/20 01:43:19;;;;;;;2.60;1.83;;;12.30;93.90;;;;;;4997412;28;20587;-79
2022/12/20 01:45:46;;;;;;;3.20;1.97;;;12.30;94.00;;;;;;4987755;28;20508;-79
2022/12/20 01:48:17;;;;;;;3.17;1.70;;;12.30;94.10;;;;;;4977566;28;20441;-79
2022/12/20 01:50:44;;;;;;;6.27;1.93;;;12.30;94.20;;;;;;4978090;28;20575;-78
2022/12/20 01:53:12;;;;;;;7.93;2.60;;;12.30;94.10;;;;;;4996978;28;20456;-79
2022/12/20 01:55:39;;;;;;;6.00;1.90;;;12.30;94.00;;;;;;4997574;28;20494;-79
2022/12/20 01:58:09;;;;;;;3.70;1.93;;;12.30;94.10;;;;;;4996710;28;20952;-78
2022/12/20 02:00:37;;;;;;;2.70;1.93;;;12.30;94.20;;;;;;4999114;28;20456;-79
2022/12/20 02:03:06;;;;;;;4.60;1.90;;;12.30;94.30;;;;;;4999012;28;20496;-79
2022/12/20 02:05:36;;;;;;;2.03;1.60;;;12.30;94.30;;;;;;4998556;28;20468;-79
2022/12/20 02:08:04;;;;;;;5.00;2.60;;;12.30;94.30;;;;;;4997992;28;20479;-79
2022/12/20 02:10:44;;;;;;;3.43;2.40;;;12.30;94.20;;;;;;4997416;28;20493;-79
2022/12/20 02:13:19;;;;;;;4.20;2.50;;;12.30;94.20;;;;;;4979378;28;20930;-79
2022/12/20 02:15:52;;;;;;;3.20;1.97;;;12.30;94.10;;;;;;4983994;28;20487;-79
2022/12/20 02:18:23;;;;;;;4.80;2.10;;;12.30;94.10;;;;;;4984443;28;20458;-78
2022/12/20 02:21:15;;;;;;;6.57;2.00;;;12.30;94.00;;;;;;4979302;28;20449;-78
2022/12/20 02:24:25;;;;;;;12.73;2.20;;;12.30;94.00;;;;;;4997501;28;20455;-79
2022/12/20 02:27:30;;;;;;;2.83;1.93;;;12.30;94.00;;;;;;4979045;28;20462;-79
2022/12/20 02:30:11;;;;;;;2.67;2.10;;;12.40;93.90;;;;;;4978526;28;20973;-79
2022/12/20 02:32:42;;;;;;;3.47;2.00;;;12.30;93.90;;;;;;4979605;28;20472;-79
2022/12/20 02:35:12;;;;;;;2.50;2.00;;;12.30;94.30;;;;;;4979937;28;20473;-79
2022/12/20 02:37:48;;;;;;;5.00;2.00;;;12.30;93.80;;;;;;4979283;28;20464;-79
2022/12/20 02:40:17;;;;;;;2.10;1.70;;;12.40;93.80;;;;;;4979085;28;20426;-79
2022/12/20 02:42:44;;;;;;;5.63;2.50;;;12.40;93.60;;;;;;4979128;28;20837;-79
2022/12/20 02:45:15;;;;;;;5.23;2.30;;;12.40;93.60;;;;;;4978527;28;20481;-79
2022/12/20 02:47:49;;;;;;;4.40;2.40;;;12.40;93.60;;;;;;4975522;28;20849;-79
2022/12/20 02:50:21;;;;;;;4.50;2.17;;;12.40;93.90;;;;;;4978439;28;20437;-79
2022/12/20 02:52:49;;;;;;;4.20;2.57;;;12.50;94.60;;;;;;4979894;28;20961;-79
2022/12/20 02:55:16;;;;;;;9.73;2.40;;;12.50;94.80;;;;;;4979994;28;20981;-79
2022/12/20 02:57:49;;;;;;;7.30;2.37;;;12.50;95.40;;;;;;4981212;28;20453;-79
2022/12/20 03:00:23;;;;;;;6.00;2.80;;;12.40;95.70;;;;;;4983368;28;20805;-79
2022/12/20 03:05:35;;;;;;;5.07;2.50;;;12.30;96.30;;;;;;4974148;28;20452;-78
2022/12/20 03:08:02;;;;;;;3.10;2.20;;;12.30;96.60;;;;;;4997839;28;20868;-78
2022/12/20 03:10:30;;;;;;;7.10;3.03;;;12.20;96.70;;;;;;4998004;28;20464;-79
2022/12/20 03:12:57;;;;;;;3.83;2.50;;;12.20;96.90;;;;;;4998850;28;20921;-78
2022/12/20 03:15:25;;;;;;;5.30;2.40;;;12.10;97.10;;;;;;4991038;28;20491;-79
2022/12/20 03:17:51;;;;;;;3.70;2.07;;;12.10;97.20;;;;;;4997636;28;20471;-79
2022/12/20 03:20:18;;;;;;;3.80;2.27;;;12.10;97.20;;;;;;4998078;28;20607;-79
2022/12/20 03:22:45;;;;;;;5.57;2.27;;;12.10;97.40;;;;;;4997871;28;20495;-79
2022/12/20 03:25:12;;;;;;;7.03;2.50;;;12.00;97.50;;;;;;4997289;28;21019;-79
2022/12/20 03:27:45;;;;;;;5.50;2.43;;;12.00;97.70;;;;;;4997867;28;20472;-78
2022/12/20 03:30:13;;;;;;;6.37;2.50;;;11.90;97.90;;;;;;4997242;28;20980;-78
2022/12/20 03:32:41;;;;;;;5.17;2.60;;;11.90;98.30;;;;;;4998775;28;20486;-78
2022/12/20 03:35:09;;;;;;;6.53;2.83;;;11.90;98.10;;;;;;4995663;28;20480;-79
2022/12/20 03:37:36;;;;;;;7.33;3.40;;;11.80;98.30;;;;;;4995125;28;20471;-79
2022/12/20 03:40:03;;;;;;;3.90;3.00;;;11.80;98.60;;;;;;4981364;28;20472;-79
2022/12/20 03:42:36;;;;;;;6.43;4.03;;;11.80;98.70;;;;;;4997125;28;20558;-79
2022/12/20 03:45:03;;;;;;;6.90;3.40;;;11.70;99.00;;;;;;4978737;28;20552;-79
2022/12/20 03:47:30;;;;;;;5.30;2.60;;;11.70;99.30;;;;;;4979075;28;20453;-80
2022/12/20 03:49:58;;;;;;;2.63;2.33;;;11.70;99.40;;;;;;4979591;28;20824;-80
2022/12/20 03:52:25;;;;;;;5.33;2.73;;;11.60;99.70;;;;;;4986201;28;20965;-80
2022/12/20 03:54:51;;;;;;;5.77;3.03;;;11.60;99.90;;;;;;4992217;28;20488;-80
2022/12/20 03:57:18;;;;;;;5.00;2.50;;;11.60;99.90;;;;;;4988254;28;20433;-79
2022/12/20 03:59:45;;;;;;;2.77;2.57;;;11.50;99.90;;;;;;4990597;28;20472;-79
2022/12/20 04:02:12;;;;;;;3.40;3.10;;;11.50;99.90;;;;;;4981378;28;20972;-79
2022/12/20 04:04:39;;;;;;;4.93;2.83;;;11.50;99.90;;;;;;4980066;28;20484;-80
2022/12/20 04:07:08;;;;;;;3.53;2.57;;;11.50;99.90;;;;;;4979589;28;20442;-80
2022/12/20 04:09:35;;;;;;;3.93;3.00;;;11.50;99.90;;;;;;4978815;28;20457;-80
2022/12/20 04:12:02;;;;;;;4.77;2.70;;;11.40;99.90;;;;;;4978542;28;20452;-79
2022/12/20 04:14:29;;;;;;;3.27;3.00;;;11.40;99.90;;;;;;4978111;28;20457;-79
2022/12/20 04:16:55;;;;;;;5.00;2.80;;;11.30;99.90;;;;;;4978826;28;20827;-78
2022/12/20 04:19:22;;;;;;;4.57;2.73;;;11.30;99.90;;;;;;4978247;28;20945;-79
2022/12/20 04:21:49;;;;;;;5.67;3.17;;;11.30;99.90;;;;;;4978383;28;20457;-80
2022/12/20 04:24:17;;;;;;;7.53;3.20;;;11.30;99.90;;;;;;4978067;28;20500;-79
2022/12/20 04:26:44;;;;;;;3.10;2.90;;;11.30;99.90;;;;;;4977740;28;20460;-80
2022/12/20 04:29:11;;;;;;;2.70;2.50;;;11.20;99.90;;;;;;4978202;28;20450;-79
2022/12/20 04:31:37;;;;;;;3.20;2.93;;;11.20;99.90;;;;;;4977571;28;20477;-79
2022/12/20 04:34:05;;;;;;;4.40;2.87;;;11.20;99.90;;;;;;4977588;28;21013;-78
2022/12/20 04:36:32;;;;;;;3.80;3.40;;;11.20;99.90;;;;;;4977742;28;20442;-78
2022/12/20 04:38:58;;;;;;;4.50;3.03;;;11.20;99.90;;;;;;4977632;28;20822;-78
2022/12/20 04:41:27;;;;;;;4.33;3.03;;;11.20;99.90;;;;;;4978032;28;20457;-79
2022/12/20 04:43:56;;;;;;;3.50;3.20;;;11.20;99.90;;;;;;4977385;28;20489;-79
2022/12/20 04:46:23;;;;;;;5.03;3.40;;;11.20;99.90;;;;;;4977496;28;20464;-78
2022/12/20 04:48:50;;;;;;;4.17;2.90;;;11.20;99.90;;;;;;4977722;28;20460;-78
2022/12/20 04:51:18;;;;;;;4.60;3.60;;;11.20;99.90;;;;;;4991075;28;20472;-78
2022/12/20 04:53:46;;;;;;;4.07;3.00;;;11.20;99.90;;;;;;4996551;28;20456;-78
2022/12/20 04:56:15;;;;;;;3.33;3.03;;;11.20;99.90;;;;;;4996427;28;20979;-78
2022/12/20 04:58:44;;;;;;;5.20;2.97;;;11.20;99.90;;;;;;4980112;28;20468;-78
2022/12/20 05:01:11;;;;;;;4.50;3.20;;;11.20;99.90;;;;;;4977444;28;20449;-78
2022/12/20 05:03:38;;;;;;;5.00;3.20;;;11.20;99.90;;;;;;4976994;28;20480;-77
2022/12/20 05:06:06;;;;;;;4.20;3.17;;;11.20;99.90;;;;;;4977145;28;20794;-78
2022/12/20 05:08:33;;;;;;;5.83;3.37;;;11.20;99.90;;;;;;4980477;28;20449;-78
2022/12/20 05:10:59;;;;;;;4.00;2.77;;;11.20;99.90;;;;;;4979276;28;20453;-78
2022/12/20 05:13:26;;;;;;;4.00;2.90;;;11.20;99.90;;;;;;4991816;28;20457;-78
2022/12/20 05:15:56;;;;;;;4.20;2.93;;;11.20;99.90;;;;;;4997795;28;20484;-78
2022/12/20 05:18:23;;;;;;;3.83;2.80;;;11.20;99.90;;;;;;4997234;28;20448;-78
2022/12/20 05:26:16;;;;;;;4.03;3.30;;;11.10;99.90;;;;;;4997224;28;20456;-78
2022/12/20 05:26:23;;;;;;;3.93;3.07;;;11.20;99.90;;;;;;4997579;28;20420;-78
2022/12/20 05:28:52;;;;;;;5.73;3.40;;;11.20;99.90;;;;;;4998441;28;20443;-78
2022/12/20 05:31:20;;;;;;;3.87;3.40;;;11.20;99.90;;;;;;4987665;28;20503;-78
2022/12/20 05:33:47;;;;;;;3.53;3.03;;;11.20;99.90;;;;;;4978499;28;20456;-78
2022/12/20 05:36:14;;;;;;;3.90;2.97;;;11.20;99.90;;;;;;4978889;28;20453;-78
2022/12/20 05:38:40;;;;;;;6.17;2.67;;;11.20;99.90;;;;;;4977961;28;20971;-78
2022/12/20 05:41:07;;;;;;;4.17;2.50;;;11.30;99.90;;;;;;5000292;28;20456;-78
2022/12/20 05:43:34;;;;;;;4.70;2.30;;;11.20;99.90;;;;;;5007726;28;20474;-78
2022/12/20 05:46:01;;;;;;;3.17;2.87;;;11.20;99.90;;;;;;5000889;28;20452;-78
2022/12/20 05:48:29;;;;;;;3.70;2.60;;;11.30;99.90;;;;;;4995787;28;20451;-78
2022/12/20 05:50:56;;;;;;;2.97;2.50;;;11.40;99.90;;;;;;4995625;28;20543;-78
2022/12/20 05:53:23;;;;;;;3.30;2.70;;;11.40;99.80;;;;;;4995340;28;20448;-78
2022/12/20 05:55:51;;;;;;;3.13;2.90;;;11.30;99.80;;;;;;4994538;28;21075;-78
2022/12/20 05:58:20;;;;;;;3.83;2.63;;;11.40;99.90;;;;;;4994947;28;20972;-78
2022/12/20 06:00:47;;;;;;;4.87;2.87;;;11.40;99.60;;;;;;4993678;28;20479;-77
2022/12/20 06:03:14;;;;;;;3.83;2.40;;;11.50;99.60;;;;;;4975975;28;21013;-78
2022/12/20 06:05:43;;;;;;;3.07;2.60;;;11.50;99.50;;;;;;4976265;28;20504;-78
2022/12/20 06:08:11;;;;;;;4.60;2.40;;;11.50;99.30;;;;;;4975807;28;20457;-78
2022/12/20 06:10:39;;;;;;;2.90;2.40;;;11.50;99.10;;;;;;4977896;28;20468;-78
2022/12/20 06:13:07;;;;;;;4.20;2.90;;;11.50;99.20;;;;;;4978420;28;20457;-78
2022/12/20 06:15:35;;;;;;;3.50;2.77;;;11.50;99.30;;;;;;4977993;28;20849;-78
2022/12/20 06:18:02;;;;;;;3.20;2.67;;;11.50;99.20;;;;;;4979302;28;20802;-78
2022/12/20 06:20:29;;;;;;;4.43;2.87;;;11.50;99.00;;;;;;4979096;28;20493;-78
2022/12/20 06:22:58;;;;;;;3.53;2.70;;;11.50;99.00;;;;;;4978957;28;20499;-78
2022/12/20 06:25:24;;;;;;;2.73;2.50;;;11.50;99.00;;;;;;4987689;28;20487;-78
2022/12/20 06:27:51;;;;;;;3.40;3.10;;;11.50;99.00;;;;;;4997119;28;20441;-78
2022/12/20 06:30:19;;;;;;;2.63;2.43;;;11.50;99.00;;;;;;4998679;28;20972;-78
2022/12/20 06:32:45;;;;;;;4.80;2.40;;;11.50;99.00;;;;;;5000360;28;20432;-78
2022/12/20 06:35:13;;;;;;;4.63;3.03;;;11.50;98.90;;;;;;4998268;28;20868;-78
2022/12/20 06:37:40;;;;;;;3.00;2.80;;;11.50;98.90;;;;;;4994234;28;20464;-78
2022/12/20 06:40:09;;;;;;;2.57;2.37;;;11.50;98.80;;;;;;4994546;28;20864;-78
2022/12/20 06:42:36;;;;;;;2.57;2.37;;;11.50;98.60;;;;;;4994525;28;20967;-78
2022/12/20 06:45:04;;;;;;;5.63;2.53;;;11.50;98.60;;;;;;4986222;28;20492;-78
2022/12/20 06:47:30;;;;;;;3.50;2.20;;;11.50;98.60;;;;;;4994623;28;20827;-78
2022/12/20 06:49:57;;;;;;;3.47;2.60;;;11.50;98.70;;;;;;4999410;28;20470;-78
2022/12/20 06:52:26;;;;;;;6.93;2.30;;;11.50;98.70;;;;;;4999782;28;20449;-78
2022/12/20 06:54:53;;;;;;;5.30;2.93;;;11.50;98.70;;;;;;4998131;28;20468;-78
2022/12/20 06:57:21;;;;;;;4.00;2.87;;;11.50;98.70;;;;;;4981060;28;20461;-78
2022/12/20 06:59:48;;;;;;;3.00;2.50;;;11.50;98.60;;;;;;4979573;28;20467;-78
2022/12/20 07:02:15;;;;;;;2.90;2.63;;;11.50;98.50;;;;;;4977867;28;20462;-77
2022/12/20 07:04:42;;;;;;;4.33;2.67;;;11.50;98.50;;;;;;4989815;28;20500;-78
2022/12/20 07:07:09;;;;;;;2.90;2.53;;;11.50;98.60;;;;;;4997933;28;20479;-78
2022/12/20 07:09:36;;;;;;;3.50;3.00;;;11.50;98.50;;;;;;4997251;28;20457;-78
2022/12/20 07:12:04;;;;;;;3.50;2.33;;;11.50;98.50;;;;;;4996742;28;20463;-78
2022/12/20 07:14:32;;;;;;;3.40;2.73;;;11.50;98.50;;;;;;4998763;28;20511;-78
2022/12/20 07:16:58;;;;;;;8.27;2.80;;;11.50;98.50;;;;;;5002243;28;20484;-78
2022/12/20 07:19:27;;;;;;;3.03;1.83;;;11.50;98.50;;;;;;4996540;28;20459;-78
2022/12/20 07:21:55;;;;;;;2.60;2.40;;;11.50;98.40;;;;;;4995953;28;20440;-78
2022/12/20 07:24:22;;;;;;;2.77;2.20;;;11.50;98.40;;;;;;4994731;28;21002;-78
2022/12/20 07:26:48;;;;;;;2.67;2.43;;;11.50;98.50;;;;;;4995884;28;20470;-78
2022/12/20 07:29:15;;;;;;;2.90;2.10;;;11.50;98.60;;;;;;4996297;28;20468;-78
2022/12/20 07:31:43;;;;;;;3.53;2.93;;;11.50;98.50;;;;;;4982491;28;20468;-78
2022/12/20 07:34:10;;;;;;;4.60;2.20;;;11.50;98.70;;;;;;4976020;28;20480;-78
2022/12/20 07:36:37;;;;;;;4.17;2.87;;;11.50;98.70;;;;;;4977889;28;20460;-78
2022/12/20 07:39:04;;;;;;;3.80;2.90;;;11.50;98.80;;;;;;4980703;28;20460;-78
2022/12/20 07:41:30;;;;;;;5.17;2.70;;;11.50;98.80;;;;;;4979853;28;20454;-78
2022/12/20 07:43:58;;;;;;;2.67;2.30;;;11.50;98.80;;;;;;4980173;28;20504;-78
2022/12/20 07:46:25;;;;;;;4.17;2.73;;;11.50;98.80;;;;;;4979129;28;20469;-78
2022/12/20 07:48:53;;;;;;;2.67;2.47;;;11.50;98.70;;;;;;4979060;28;20449;-78
2022/12/20 07:51:23;;;;;;;3.20;2.77;;;11.50;98.70;;;;;;4978229;28;20477;-78
2022/12/20 07:53:56;;;;;;;2.80;2.60;;;11.50;98.60;;;;;;4978528;28;20452;-78
2022/12/20 07:56:23;;;;;;;3.83;3.53;;;11.50;98.40;;;;;;4978908;28;20446;-79
2022/12/20 07:58:57;;;;;;;3.47;2.93;;;11.50;98.40;;;;;;4978659;28;20464;-78
2022/12/20 08:01:25;;;;;;;4.83;2.60;;;11.50;98.40;;;;;;4979399;28;20449;-78
2022/12/20 08:03:57;;;;;;;3.13;2.60;;;11.50;98.30;;;;;;4979278;28;20489;-78
2022/12/20 08:06:24;;;;;;;2.77;2.13;;;11.50;98.40;;;;;;4979044;28;20442;-79
2022/12/20 08:08:56;;;;;;;3.67;3.37;;;11.50;98.30;;;;;;4979758;28;20471;-78
2022/12/20 08:11:23;;;;;;;4.80;3.30;;;11.50;98.30;;;;;;4979835;28;20453;-78
2022/12/20 08:13:51;;;;;;;6.90;2.93;;;11.60;98.20;;;;;;4979179;28;20946;-78
2022/12/20 08:16:18;;;;;;;5.60;3.03;;;11.60;98.20;;;;;;4981593;28;20477;-77
2022/12/20 08:18:45;;;;;;;7.40;2.80;;;11.60;98.10;;;;;;4995400;28;20993;-77
2022/12/20 08:21:14;;;;;;;7.03;2.53;;;11.70;98.00;;;;;;4993333;28;20436;-77
2022/12/20 08:23:41;;;;;;;3.57;2.53;;;11.70;97.90;;;;;;4996785;28;20552;-78
2022/12/20 08:26:07;;;;;;;3.83;2.30;;;11.70;97.80;;;;;;4998409;28;20464;-77
2022/12/20 08:28:34;;;;;;;4.70;3.40;;;11.70;97.60;;;;;;4997102;28;20984;-77
2022/12/20 08:31:02;;;;;;;4.27;3.87;;;11.70;97.70;;;;;;4995822;28;20901;-77
2022/12/20 08:33:29;;;;;;;5.23;3.60;;;11.70;97.60;;;;;;4998710;28;20452;-77
2022/12/20 08:35:59;;;;;;;6.70;4.40;;;11.80;97.50;;;;;;4998982;28;20508;-78
2022/12/20 08:38:29;;;;;;;4.13;2.90;;;11.80;97.30;;;;;;4999341;28;20440;-78
2022/12/20 08:41:01;;;;;;;3.43;2.50;;;11.90;97.50;;;;;;4998381;28;20824;-78
2022/12/20 08:43:28;;;;;;;51.93;3.50;;;11.90;97.20;;;;;;4997585;28;20984;-78
2022/12/20 08:45:55;;;;;;;3.27;2.43;;;11.80;97.10;;;;;;4998432;28;20473;-78
2022/12/20 08:48:22;;;;;;;3.83;1.97;;;11.90;97.10;;;;;;4997632;28;20469;-78
2022/12/20 08:50:59;;;;;;;3.83;2.60;;;11.90;97.00;;;;;;4997618;28;20500;-78
2022/12/20 08:53:28;;;;;;;3.50;2.50;;;11.80;97.10;;;;;;4998856;28;20421;-78
2022/12/20 08:56:04;;;;;;;4.10;2.70;;;11.80;97.00;;;;;;4999185;28;20491;-78
2022/12/20 08:58:30;;;;;;;5.07;2.50;;;11.80;97.10;;;;;;4998971;28;20448;-78
2022/12/20 09:00:59;;;;;;;2.43;2.23;;;11.90;97.20;;;;;;4997987;28;20472;-79
2022/12/20 09:03:25;;;;;;;2.13;1.93;;;11.90;97.20;;;;;;4997238;28;20953;-79
2022/12/20 09:05:52;;;;;;;2.37;2.17;;;11.90;97.10;;;;;;4996370;28;20488;-78
2022/12/20 09:08:19;;;;;;;1.80;1.70;;;11.80;97.20;;;;;;4996387;28;20459;-78
2022/12/20 09:10:47;;;;;;;4.73;3.00;;;11.80;97.40;;;;;;4996497;28;20457;-78
2022/12/20 09:13:14;;;;;;;2.80;2.00;;;11.80;97.50;;;;;;4996360;28;20464;-78
2022/12/20 09:15:41;;;;;;;3.07;1.93;;;11.80;97.70;;;;;;4996279;28;20871;-78
2022/12/20 09:18:07;;;;;;;5.40;2.50;;;11.80;97.80;;;;;;4996673;28;20463;-79
2022/12/20 09:20:35;;;;;;;2.70;2.37;;;11.80;98.00;;;;;;4996413;28;20452;-79
2022/12/20 09:23:12;;;;;;;5.00;2.60;;;11.70;98.00;;;;;;4996405;28;20460;-78
2022/12/20 09:25:39;;;;;;;2.97;2.67;;;11.70;98.10;;;;;;4999485;28;20907;-79
2022/12/20 09:28:07;;;;;;;5.40;1.87;;;11.70;98.30;;;;;;4998578;28;20433;-79
2022/12/20 09:30:34;;;;;;;2.90;2.17;;;11.70;98.50;;;;;;4997644;28;20463;-80
2022/12/20 09:33:01;;;;;;;6.20;2.57;;;11.70;98.70;;;;;;4996997;28;20859;-79
2022/12/20 09:35:33;;;;;;;3.67;2.17;;;11.80;98.70;;;;;;4996919;28;20491;-79
2022/12/20 09:38:00;;;;;;;4.20;2.00;;;11.80;98.60;;;;;;4996440;28;20441;-80
2022/12/20 09:40:31;;;;;;;4.10;2.00;;;11.90;98.20;;;;;;4996449;28;20429;-80
2022/12/20 09:42:58;;;;;;;8.03;2.70;;;11.90;97.90;;;;;;4996988;28;20441;-79
2022/12/20 09:45:36;;;;;;;2.20;1.97;;;12.00;97.80;;;;;;4996142;28;20492;-79
2022/12/20 09:48:04;;;;;;;3.20;2.50;;;12.10;98.10;;;;;;4995923;28;20965;-79
2022/12/20 09:50:44;;;;;;;2.70;2.30;;;12.10;98.10;;;;;;4995690;28;20584;-79
2022/12/20 09:53:21;;;;;;;3.60;1.80;;;12.20;98.00;;;;;;4995946;28;20567;-79
2022/12/20 09:55:54;;;;;;;2.70;1.90;;;12.20;97.90;;;;;;4995372;28;20472;-79
2022/12/20 09:58:35;;;;;;;2.93;2.63;;;12.20;97.60;;;;;;4995095;28;20916;-79
2022/12/20 10:01:15;;;;;;;4.00;2.10;;;12.30;97.50;;;;;;4995916;28;20443;-78
2022/12/20 10:03:49;;;;;;;3.70;2.70;;;12.30;97.20;;;;;;4994902;28;20929;-78
2022/12/20 10:06:22;;;;;;;5.13;2.80;;;12.30;96.80;;;;;;4995408;28;20447;-79
2022/12/20 10:08:54;;;;;;;10.10;3.47;;;12.40;96.80;;;;;;4995083;28;20444;-78
2022/12/20 10:11:41;;;;;;;6.27;2.73;;;12.40;96.70;;;;;;4995907;28;20441;-78
2022/12/20 10:14:18;;;;;;;5.63;2.90;;;12.50;96.30;;;;;;4994772;28;20476;-78
2022/12/20 10:16:53;;;;;;;3.70;2.90;;;12.50;96.20;;;;;;4997034;28;20458;-78
2022/12/20 10:19:34;;;;;;;3.13;2.50;;;12.50;96.10;;;;;;5007810;28;20448;-78
2022/12/20 10:22:10;;;;;;;7.97;2.90;;;12.50;96.10;;;;;;5007133;28;20797;-80
2022/12/20 10:24:40;;;;;;;6.03;2.70;;;12.60;95.80;;;;;;4997175;28;20488;-79
2022/12/20 10:27:14;;;;;;;4.57;2.73;;;12.70;95.80;;;;;;4996006;28;20495;-79
2022/12/20 10:29:41;;;;;;;5.53;3.03;;;12.70;95.70;;;;;;4998742;28;20881;-79
2022/12/20 10:32:14;;;;;;;3.63;2.57;;;12.80;95.60;;;;;;4997945;28;20465;-79
2022/12/20 10:34:50;;;;;;;4.50;2.50;;;12.80;95.40;;;;;;4997559;28;21019;-78
2022/12/20 10:37:18;;;;;;;3.17;2.17;;;12.80;95.40;;;;;;4996373;28;20447;-78
2022/12/20 10:39:48;;;;;;;4.70;2.00;;;12.80;95.30;;;;;;4995079;28;20928;-78
2022/12/20 10:42:27;;;;;;;1.93;1.70;;;12.90;95.30;;;;;;4995924;28;20436;-78
2022/12/20 10:44:54;;;;;;;3.13;1.60;;;13.00;95.20;;;;;;4997959;28;20500;-79
2022/12/20 10:47:35;;;;;;;4.57;2.67;;;13.00;94.90;;;;;;4997059;28;20453;-78
2022/12/20 10:50:16;;;;;;;6.70;2.50;;;13.10;94.80;;;;;;4993722;28;20457;-78
2022/12/20 10:52:43;;;;;;;4.93;2.63;;;13.10;94.60;;;;;;4978419;28;20475;-79
2022/12/20 10:55:35;;;;;;;5.33;2.27;;;13.10;94.60;;;;;;4997069;28;20450;-78
2022/12/20 10:58:15;;;;;;;4.13;2.23;;;13.20;94.60;;;;;;4993594;28;20442;-79
2022/12/20 11:00:48;;;;;;;2.43;2.23;;;13.20;94.50;;;;;;4992275;28;20433;-78
2022/12/20 11:03:18;;;;;;;4.73;2.10;;;13.20;94.50;;;;;;4999535;28;20452;-79
2022/12/20 11:05:57;;;;;;;7.73;2.50;;;13.20;94.50;;;;;;4994194;28;20493;-79
2022/12/20 11:08:26;;;;;;;8.33;2.70;;;13.20;94.40;;;;;;4987066;28;20433;-79
2022/12/20 11:11:12;;;;;;;5.63;2.60;;;13.20;94.40;;;;;;4987279;28;20460;-79
2022/12/20 11:13:52;;;;;;;6.90;2.97;;;13.20;94.50;;;;;;4987688;28;20465;-78
2022/12/20 11:16:38;;;;;;;6.47;3.20;;;13.20;94.60;;;;;;4986500;28;20460;-78
2022/12/20 11:19:43;;;;;;;10.97;3.53;;;13.20;94.70;;;;;;4986383;28;20433;-79
2022/12/20 11:22:18;;;;;;;11.67;3.17;;;13.20;94.80;;;;;;4965506;29;20450;-79
2022/12/20 11:24:52;;;;;;;10.47;3.90;;;13.20;94.80;;;;;;4983610;28;20492;-79
2022/12/20 11:27:27;;;;;;;7.07;4.63;;;13.20;94.90;;;;;;4986089;28;20516;-79
2022/12/20 11:30:05;;;;;;;5.27;3.60;;;13.20;95.00;;;;;;4985621;28;20441;-79
2022/12/20 11:32:56;;;;;;;7.80;3.00;;;13.20;95.00;;;;;;4986659;28;20944;-79
2022/12/20 11:35:35;;;;;;;3.70;3.40;;;13.20;95.10;;;;;;4991446;28;20468;-79
2022/12/20 11:38:18;;;;;;;6.10;3.60;;;13.20;95.20;;;;;;4987164;28;20485;-79
2022/12/20 11:40:51;;;;;;;9.63;3.33;;;13.20;95.20;;;;;;4984710;28;20442;-79
2022/12/20 11:43:45;;;;;;;4.17;3.33;;;13.20;95.20;;;;;;4984213;28;20441;-79
2022/12/20 11:46:24;;;;;;;6.40;3.93;;;13.20;95.10;;;;;;4984006;28;20472;-79
2022/12/20 11:49:25;;;;;;;7.90;4.20;;;13.30;95.10;;;;;;4983587;28;20832;-78
2022/12/20 11:51:58;;;;;;;7.40;4.43;;;13.30;95.00;;;;;;4978987;28;20465;-79
2022/12/20 11:54:29;;;;;;;4.33;2.83;;;13.40;94.90;;;;;;4983349;28;20854;-79
2022/12/20 11:57:01;;;;;;;9.10;4.30;;;13.40;94.80;;;;;;4983753;28;20461;-79
2022/12/20 11:59:36;;;;;;;6.13;3.47;;;13.50;94.70;;;;;;4982581;28;20776;-79
2022/12/20 12:02:09;;;;;;;5.70;2.80;;;13.50;94.60;;;;;;4988567;28;20441;-79
2022/12/20 12:04:44;;;;;;;3.93;2.70;;;13.50;94.50;;;;;;4996580;28;20541;-79
2022/12/20 12:07:18;;;;;;;4.83;2.20;;;13.50;94.30;;;;;;4988102;28;20436;-79
2022/12/20 12:09:53;;;;;;;6.43;1.70;;;13.50;94.30;;;;;;4982425;28;20460;-79
2022/12/20 12:12:24;;;;;;;3.53;2.10;;;13.60;94.40;;;;;;4982098;28;20441;-79
2022/12/20 12:14:58;;;;;;;2.73;1.93;;;13.60;94.40;;;;;;4982306;28;20470;-79
2022/12/20 12:17:32;;;;;;;1.80;1.70;;;13.50;94.80;;;;;;4982526;28;20433;-79
2022/12/20 12:20:19;;;;;;;2.80;1.47;;;13.60;95.30;;;;;;4983682;28;20916;-79
2022/12/20 12:22:51;;;;;;;4.73;1.90;;;13.50;95.90;;;;;;4986158;28;20441;-78
2022/12/20 12:25:19;;;;;;;6.10;2.03;;;13.50;96.50;;;;;;4984831;28;20500;-79
2022/12/20 12:27:46;;;;;;;1.90;1.67;;;13.40;97.00;;;;;;4982575;28;20453;-79
2022/12/20 12:30:13;;;;;;;2.30;1.90;;;13.40;97.40;;;;;;4983635;28;20966;-79
2022/12/20 12:32:43;;;;;;;5.97;2.70;;;13.30;98.70;;;;;;4980490;28;20545;-79
2022/12/20 12:35:25;;;;;;;2.80;2.33;;;13.20;99.20;;;;;;4981051;28;20481;-80
2022/12/20 12:38:17;;;;;;;3.30;2.37;;;13.20;99.80;;;;;;4981001;28;20450;-80
2022/12/20 12:41:02;;;;;;;3.30;2.60;;;13.10;99.90;;;;;;4980904;28;20446;-80
2022/12/20 12:43:45;;;;;;;4.30;2.93;;;13.10;99.90;;;;;;4979140;28;20449;-80
2022/12/20 12:46:15;;;;;;;4.17;2.33;;;13.10;99.90;;;;;;4978359;28;20497;-80
2022/12/20 12:48:46;;;;;;;2.63;1.90;;;13.10;99.90;;;;;;4978357;28;20857;-79
2022/12/20 12:51:15;;;;;;;3.10;1.90;;;13.10;99.90;;;;;;4978899;28;20437;-79
2022/12/20 12:53:48;;;;;;;3.23;2.53;;;13.00;99.90;;;;;;4977331;28;20449;-79
2022/12/20 12:56:39;;;;;;;3.93;2.20;;;13.00;99.90;;;;;;4977714;28;20453;-79
2022/12/20 12:59:37;;;;;;;4.73;2.43;;;13.10;99.90;;;;;;4978475;28;20919;-79
2022/12/20 13:02:23;;;;;;;5.80;3.73;;;13.10;99.90;;;;;;4974692;28;20509;-79
2022/12/20 13:04:55;;;;;;;5.10;2.70;;;13.10;99.90;;;;;;4976881;28;20493;-80
2022/12/20 13:07:28;;;;;;;6.57;2.63;;;13.10;99.70;;;;;;4977992;28;20444;-79
2022/12/20 13:09:56;;;;;;;7.63;2.77;;;13.10;99.40;;;;;;4977907;28;20460;-79